Time;durP1;ratioP1;P1;durP2;ratioP2;P2;SDS_P1;SDS_P2;PMS_P1;PMS_P2;Temp;Humidity;BMP_temperature;BMP_pressure;BME280_temperature;BME280_humidity;BME280_pressure;Samples;Min_cycle;Max_cycle;Signal;HPM_P1;HPM_P2
2022/03/20 00:00:32;;;;;;;2.50;1.90;;;;;;;;;;4985072;28;20192;-84
2022/03/20 00:02:58;;;;;;;3.85;1.80;;;;;;;;;;4984899;28;20235;-84
2022/03/20 00:05:24;;;;;;;4.43;2.55;;;;;;;;;;4999226;28;20196;-86
2022/03/20 00:07:50;;;;;;;2.05;1.83;;;;;;;;;;4985886;28;20172;-84
2022/03/20 00:10:17;;;;;;;1.90;1.80;;;;;;;;;;4986224;28;20258;-84
2022/03/20 00:12:43;;;;;;;3.00;1.90;;;;;;;;;;4986073;28;20190;-83
2022/03/20 00:15:10;;;;;;;5.40;1.70;;;;;;;;;;4985930;28;20180;-84
2022/03/20 00:17:36;;;;;;;3.28;2.10;;;;;;;;;;4984588;28;20215;-84
2022/03/20 00:20:03;;;;;;;3.22;2.00;;;;;;;;;;4986137;28;20200;-85
2022/03/20 00:22:29;;;;;;;2.20;2.00;;;;;;;;;;4986578;28;20180;-85
2022/03/20 00:24:55;;;;;;;5.45;2.17;;;;;;;;;;4981417;28;20184;-86
2022/03/20 00:27:21;;;;;;;2.70;1.95;;;;;;;;;;4979987;28;20183;-82
2022/03/20 00:29:47;;;;;;;2.67;1.58;;;;;;;;;;4985541;28;20251;-81
2022/03/20 00:32:14;;;;;;;5.25;1.55;;;;;;;;;;4984719;28;20211;-83
2022/03/20 00:34:40;;;;;;;2.00;1.52;;;;;;;;;;4998168;28;20252;-87
2022/03/20 00:37:07;;;;;;;1.60;1.23;;;;;;;;;;4984118;28;20238;-85
2022/03/20 00:39:33;;;;;;;1.77;1.60;;;;;;;;;;4985902;28;20184;-85
2022/03/20 00:41:59;;;;;;;3.58;1.67;;;;;;;;;;4986097;28;20187;-88
2022/03/20 00:44:25;;;;;;;5.30;1.88;;;;;;;;;;4985546;28;20195;-84
2022/03/20 00:46:52;;;;;;;2.70;1.70;;;;;;;;;;5000113;28;20183;-83
2022/03/20 00:49:18;;;;;;;2.60;1.40;;;;;;;;;;4985988;28;20180;-84
2022/03/20 00:51:44;;;;;;;2.70;1.50;;;;;;;;;;4984699;28;20215;-85
2022/03/20 00:54:10;;;;;;;7.68;1.60;;;;;;;;;;4980721;28;20189;-84
2022/03/20 00:56:37;;;;;;;2.78;1.45;;;;;;;;;;4988141;28;20212;-83
2022/03/20 00:59:03;;;;;;;2.55;2.10;;;;;;;;;;4999340;28;20195;-84
2022/03/20 01:01:29;;;;;;;1.50;1.40;;;;;;;;;;4983145;28;20552;-83
2022/03/20 01:03:56;;;;;;;3.97;1.67;;;;;;;;;;4985221;28;20278;-85
2022/03/20 01:06:25;;;;;;;8.40;1.95;;;;;;;;;;4980147;28;20191;-85
2022/03/20 01:08:52;;;;;;;2.55;1.27;;;;;;;;;;4974540;28;20187;-84
2022/03/20 01:11:19;;;;;;;2.10;1.75;;;;;;;;;;4984549;28;20223;-85
2022/03/20 01:13:45;;;;;;;2.60;1.88;;;;;;;;;;4985025;28;20180;-85
2022/03/20 01:16:11;;;;;;;3.20;1.35;;;;;;;;;;4973566;28;20766;-84
2022/03/20 01:18:37;;;;;;;2.17;1.75;;;;;;;;;;4980142;28;20187;-85
2022/03/20 01:21:03;;;;;;;1.75;1.52;;;;;;;;;;4983115;28;20255;-85
2022/03/20 01:23:29;;;;;;;1.80;1.30;;;;;;;;;;4984933;28;20183;-86
2022/03/20 01:25:55;;;;;;;2.80;1.40;;;;;;;;;;4998919;28;20310;-84
2022/03/20 01:28:23;;;;;;;2.88;1.60;;;;;;;;;;4984178;28;20199;-85
2022/03/20 01:30:49;;;;;;;4.70;1.92;;;;;;;;;;4983466;28;20203;-86
2022/03/20 01:33:15;;;;;;;1.92;1.73;;;;;;;;;;4985234;28;20205;-82
2022/03/20 01:35:42;;;;;;;3.58;1.67;;;;;;;;;;4983078;28;20210;-84
2022/03/20 01:38:08;;;;;;;2.33;1.30;;;;;;;;;;4983927;28;20184;-85
2022/03/20 01:40:34;;;;;;;2.15;1.23;;;;;;;;;;4985619;28;20183;-86
2022/03/20 01:43:01;;;;;;;1.40;1.30;;;;;;;;;;4980202;28;20188;-85
2022/03/20 01:45:27;;;;;;;3.45;1.55;;;;;;;;;;4978626;28;20253;-86
2022/03/20 01:47:53;;;;;;;1.65;1.55;;;;;;;;;;4983628;28;20211;-85
2022/03/20 01:50:21;;;;;;;3.05;1.30;;;;;;;;;;4982541;28;20187;-84
2022/03/20 01:52:48;;;;;;;2.15;1.50;;;;;;;;;;4983019;28;20179;-84
2022/03/20 01:55:15;;;;;;;4.93;1.30;;;;;;;;;;4985439;28;20175;-85
2022/03/20 01:57:42;;;;;;;2.00;1.40;;;;;;;;;;4983931;28;20760;-85
2022/03/20 02:00:09;;;;;;;1.73;1.40;;;;;;;;;;4999169;28;20183;-84
2022/03/20 02:02:35;;;;;;;2.25;1.40;;;;;;;;;;4983936;28;20179;-85
2022/03/20 02:05:02;;;;;;;2.08;1.27;;;;;;;;;;4983970;28;20243;-84
2022/03/20 02:07:29;;;;;;;1.38;1.27;;;;;;;;;;4985288;28;20195;-85
2022/03/20 02:09:55;;;;;;;2.10;1.35;;;;;;;;;;4979453;28;20188;-85
2022/03/20 02:12:21;;;;;;;2.10;1.67;;;;;;;;;;4992202;28;20326;-83
2022/03/20 02:14:47;;;;;;;2.42;1.58;;;;;;;;;;4982456;28;20266;-83
2022/03/20 02:17:13;;;;;;;1.73;1.35;;;;;;;;;;4982513;28;20184;-83
2022/03/20 02:19:41;;;;;;;1.05;0.93;;;;;;;;;;4979067;28;20191;-84
2022/03/20 02:22:08;;;;;;;5.32;1.85;;;;;;;;;;4975119;28;20189;-83
2022/03/20 02:24:53;;;;;;;2.60;1.80;;;;;;;;;;4978301;28;20207;-85
2022/03/20 02:27:23;;;;;;;3.28;1.60;;;;;;;;;;4984137;28;20188;-83
2022/03/20 02:30:00;;;;;;;4.30;1.60;;;;;;;;;;4983312;28;20218;-84
2022/03/20 02:32:27;;;;;;;3.08;1.42;;;;;;;;;;4983466;28;20207;-84
2022/03/20 02:34:54;;;;;;;2.20;1.40;;;;;;;;;;4984097;28;20622;-83
2022/03/20 02:37:21;;;;;;;1.63;1.35;;;;;;;;;;4984396;28;20251;-85
2022/03/20 02:39:48;;;;;;;6.78;2.15;;;;;;;;;;4995251;28;20548;-83
2022/03/20 02:42:15;;;;;;;4.07;1.27;;;;;;;;;;4975827;28;20192;-86
2022/03/20 02:44:54;;;;;;;2.85;1.48;;;;;;;;;;4982760;28;20187;-85
2022/03/20 02:47:23;;;;;;;2.65;1.50;;;;;;;;;;4968866;28;20528;-86
2022/03/20 02:49:56;;;;;;;3.55;1.70;;;;;;;;;;4996275;28;20184;-84
2022/03/20 02:52:30;;;;;;;3.85;1.40;;;;;;;;;;4999115;28;20277;-86
2022/03/20 02:55:03;;;;;;;3.92;1.63;;;;;;;;;;4978394;28;20183;-86
2022/03/20 02:57:30;;;;;;;2.45;1.20;;;;;;;;;;4978536;28;20180;-86
2022/03/20 03:00:00;;;;;;;4.53;2.60;;;;;;;;;;4982994;28;20184;-85
2022/03/20 03:02:26;;;;;;;2.78;1.83;;;;;;;;;;4982000;28;20198;-84
2022/03/20 03:04:52;;;;;;;4.63;1.80;;;;;;;;;;4984041;28;20182;-82
2022/03/20 03:07:18;;;;;;;3.30;1.15;;;;;;;;;;4979732;28;20209;-85
2022/03/20 03:12:28;;;;;;;2.10;1.45;;;;;;;;;;4977896;28;20542;-82
2022/03/20 03:17:39;;;;;;;2.22;1.85;;;;;;;;;;4983123;28;20298;-85
2022/03/20 03:20:05;;;;;;;7.45;2.00;;;;;;;;;;4983370;28;20626;-86
2022/03/20 03:22:31;;;;;;;5.18;1.52;;;;;;;;;;4983000;28;20180;-86
2022/03/20 03:24:57;;;;;;;6.18;1.58;;;;;;;;;;4995209;28;20184;-86
2022/03/20 03:27:23;;;;;;;2.30;1.65;;;;;;;;;;4977127;28;20187;-86
2022/03/20 03:29:49;;;;;;;1.95;1.48;;;;;;;;;;4981912;28;20523;-86
2022/03/20 03:32:15;;;;;;;6.28;1.85;;;;;;;;;;4999778;28;20304;-85
2022/03/20 03:37:27;;;;;;;1.83;1.73;;;;;;;;;;4987677;28;20462;-85
2022/03/20 03:39:53;;;;;;;3.15;2.67;;;;;;;;;;4984235;28;20192;-86
2022/03/20 03:42:19;;;;;;;1.67;1.58;;;;;;;;;;4986848;28;20198;-87
2022/03/20 03:44:46;;;;;;;4.03;1.73;;;;;;;;;;4986932;28;20207;-85
2022/03/20 03:47:12;;;;;;;3.08;1.50;;;;;;;;;;4984719;28;20207;-87
2022/03/20 03:49:39;;;;;;;2.60;2.00;;;;;;;;;;4983291;28;20191;-87
2022/03/20 03:52:05;;;;;;;3.53;1.60;;;;;;;;;;4986406;28;20467;-83
2022/03/20 03:54:32;;;;;;;1.70;1.40;;;;;;;;;;4986307;28;20188;-86
2022/03/20 03:56:58;;;;;;;3.42;1.90;;;;;;;;;;5001556;28;20206;-86
2022/03/20 03:59:24;;;;;;;1.40;1.30;;;;;;;;;;4985175;28;20199;-86
2022/03/20 04:01:50;;;;;;;3.00;2.00;;;;;;;;;;4999617;28;20180;-87
2022/03/20 04:04:16;;;;;;;3.55;2.00;;;;;;;;;;4986633;28;20195;-87
2022/03/20 04:06:42;;;;;;;3.13;1.77;;;;;;;;;;4986238;28;20188;-88
2022/03/20 04:09:08;;;;;;;3.55;1.73;;;;;;;;;;4985147;28;20199;-87
2022/03/20 04:11:34;;;;;;;4.13;1.58;;;;;;;;;;4973776;28;20223;-88
2022/03/20 04:14:00;;;;;;;3.92;2.28;;;;;;;;;;4979656;28;20244;-88
2022/03/20 04:16:26;;;;;;;4.40;1.73;;;;;;;;;;4975220;28;20243;-88
2022/03/20 04:18:52;;;;;;;2.47;2.10;;;;;;;;;;4984440;28;20188;-87
2022/03/20 04:21:18;;;;;;;4.63;2.30;;;;;;;;;;5001456;28;20180;-87
2022/03/20 04:23:49;;;;;;;2.90;1.63;;;;;;;;;;4986541;28;20219;-87
2022/03/20 04:26:16;;;;;;;4.00;1.98;;;;;;;;;;4986450;28;20186;-87
2022/03/20 04:28:44;;;;;;;7.85;2.38;;;;;;;;;;4998939;28;20184;-86
2022/03/20 04:31:15;;;;;;;4.53;2.30;;;;;;;;;;4986072;28;20211;-88
2022/03/20 04:33:45;;;;;;;2.20;1.70;;;;;;;;;;4982283;28;20271;-87
2022/03/20 04:36:11;;;;;;;3.03;1.80;;;;;;;;;;5000782;28;20180;-87
2022/03/20 04:38:37;;;;;;;4.13;1.95;;;;;;;;;;4986373;28;20227;-87
2022/03/20 04:41:04;;;;;;;2.15;1.95;;;;;;;;;;5000936;28;20211;-86
2022/03/20 04:43:30;;;;;;;3.25;2.25;;;;;;;;;;4982945;28;20191;-88
2022/03/20 04:45:56;;;;;;;3.97;2.00;;;;;;;;;;4984860;28;20215;-86
2022/03/20 04:59:21;;;;;;;3.10;2.30;;;;;;;;;;4970912;28;20190;-85
2022/03/20 05:01:47;;;;;;;4.20;2.60;;;;;;;;;;4984616;28;20207;-86
2022/03/20 05:04:14;;;;;;;7.18;2.67;;;;;;;;;;4986160;28;20234;-86
2022/03/20 05:06:40;;;;;;;2.95;2.28;;;;;;;;;;4985574;28;20183;-86
2022/03/20 05:14:35;;;;;;;5.47;3.00;;;;;;;;;;4985089;28;20211;-85
2022/03/20 05:17:04;;;;;;;8.15;3.20;;;;;;;;;;4984827;28;20179;-87
2022/03/20 05:19:30;;;;;;;9.63;3.30;;;;;;;;;;4986672;28;20179;-85
2022/03/20 05:21:56;;;;;;;5.00;2.65;;;;;;;;;;4985287;28;20210;-88
2022/03/20 05:24:22;;;;;;;3.22;2.22;;;;;;;;;;4980789;28;20263;-87
2022/03/20 05:26:48;;;;;;;5.20;2.75;;;;;;;;;;4989330;28;20736;-87
2022/03/20 05:29:14;;;;;;;3.88;2.63;;;;;;;;;;4984687;28;20224;-86
2022/03/20 05:31:40;;;;;;;4.53;2.67;;;;;;;;;;4986336;28;20203;-86
2022/03/20 05:34:06;;;;;;;4.38;2.28;;;;;;;;;;4985238;28;20431;-87
2022/03/20 05:36:32;;;;;;;3.63;2.58;;;;;;;;;;4984844;28;20713;-88
2022/03/20 05:39:02;;;;;;;3.28;2.97;;;;;;;;;;4984879;28;20188;-86
2022/03/20 05:41:45;;;;;;;6.07;3.03;;;;;;;;;;4999867;28;20199;-85
2022/03/20 05:44:12;;;;;;;2.90;2.58;;;;;;;;;;4984766;28;20176;-87
2022/03/20 05:46:38;;;;;;;4.72;2.95;;;;;;;;;;4983871;28;20184;-87
2022/03/20 05:49:05;;;;;;;3.70;3.00;;;;;;;;;;4997282;28;20196;-87
2022/03/20 05:51:31;;;;;;;2.78;2.33;;;;;;;;;;4980097;28;20200;-87
2022/03/20 05:53:58;;;;;;;7.03;3.67;;;;;;;;;;4975756;28;20207;-87
2022/03/20 05:59:09;;;;;;;4.22;2.70;;;;;;;;;;4970771;28;20546;-87
2022/03/20 06:01:35;;;;;;;4.43;3.30;;;;;;;;;;4979059;28;20248;-88
2022/03/20 06:04:03;;;;;;;6.57;2.00;;;;;;;;;;4982773;28;20279;-87
2022/03/20 06:06:30;;;;;;;4.82;2.00;;;;;;;;;;4984054;28;20180;-88
2022/03/20 06:08:56;;;;;;;2.63;2.42;;;;;;;;;;4984514;28;20195;-88
2022/03/20 06:11:22;;;;;;;4.47;2.53;;;;;;;;;;4984096;28;20227;-88
2022/03/20 06:13:48;;;;;;;3.25;2.78;;;;;;;;;;4985066;28;20175;-87
2022/03/20 06:16:18;;;;;;;3.75;2.65;;;;;;;;;;4985021;28;20175;-88
2022/03/20 06:18:44;;;;;;;6.28;4.03;;;;;;;;;;4984524;28;20183;-87
2022/03/20 06:21:13;;;;;;;6.47;2.45;;;;;;;;;;4984102;28;20195;-87
2022/03/20 06:23:39;;;;;;;3.58;2.83;;;;;;;;;;4984401;28;20246;-87
2022/03/20 06:26:06;;;;;;;5.28;2.50;;;;;;;;;;4993756;28;20534;-86
2022/03/20 06:28:33;;;;;;;3.17;2.30;;;;;;;;;;4985004;28;20183;-86
2022/03/20 06:30:59;;;;;;;4.90;2.65;;;;;;;;;;4973039;28;20212;-88
2022/03/20 06:33:25;;;;;;;3.38;2.35;;;;;;;;;;4978124;28;20213;-87
2022/03/20 06:35:52;;;;;;;3.20;2.50;;;;;;;;;;4984074;28;20184;-87
2022/03/20 06:38:18;;;;;;;3.70;3.20;;;;;;;;;;4983321;28;20712;-87
2022/03/20 06:40:44;;;;;;;5.07;2.75;;;;;;;;;;4996206;28;20180;-87
2022/03/20 06:43:10;;;;;;;5.20;2.90;;;;;;;;;;4983739;28;20184;-88
2022/03/20 06:45:36;;;;;;;4.97;3.25;;;;;;;;;;4982868;28;20191;-87
2022/03/20 06:48:03;;;;;;;5.85;3.47;;;;;;;;;;4983819;28;20192;-87
2022/03/20 06:50:29;;;;;;;6.78;2.83;;;;;;;;;;4983165;28;20184;-86
2022/03/20 06:53:01;;;;;;;7.03;3.03;;;;;;;;;;4983773;28;20171;-88
2022/03/20 06:55:27;;;;;;;6.38;3.88;;;;;;;;;;4985387;28;20172;-87
2022/03/20 06:57:53;;;;;;;5.60;4.70;;;;;;;;;;4979750;28;20199;-87
2022/03/20 07:00:19;;;;;;;5.13;4.60;;;;;;;;;;4987281;28;20192;-87
2022/03/20 07:02:45;;;;;;;7.68;4.03;;;;;;;;;;4987697;28;20183;-87
2022/03/20 07:05:11;;;;;;;11.20;4.43;;;;;;;;;;4983118;28;20187;-87
2022/03/20 07:07:37;;;;;;;5.97;3.97;;;;;;;;;;4988481;28;20192;-86
2022/03/20 07:10:04;;;;;;;4.25;3.75;;;;;;;;;;4987265;28;20187;-87
2022/03/20 07:12:30;;;;;;;10.77;5.13;;;;;;;;;;4984919;28;20240;-87
2022/03/20 07:14:57;;;;;;;8.55;4.95;;;;;;;;;;4987047;28;20224;-86
2022/03/20 07:17:24;;;;;;;11.77;5.10;;;;;;;;;;4986465;28;20176;-86
2022/03/20 07:19:50;;;;;;;11.18;4.68;;;;;;;;;;4985480;28;20180;-86
2022/03/20 07:22:18;;;;;;;7.97;4.53;;;;;;;;;;4986921;28;20194;-86
2022/03/20 07:24:44;;;;;;;8.45;4.35;;;;;;;;;;4987007;28;20211;-85
2022/03/20 07:29:56;;;;;;;8.52;4.68;;;;;;;;;;4987260;28;20212;-87
2022/03/20 07:32:23;;;;;;;4.82;3.60;;;;;;;;;;4987342;28;20203;-87
2022/03/20 07:34:49;;;;;;;4.32;3.53;;;;;;;;;;5002496;28;20263;-87
2022/03/20 07:37:16;;;;;;;6.38;3.88;;;;;;;;;;4985881;28;20176;-86
2022/03/20 07:39:46;;;;;;;7.20;4.60;;;;;;;;;;4980240;28;20176;-83
2022/03/20 07:42:13;;;;;;;6.05;4.40;;;;;;;;;;4979873;28;20204;-88
2022/03/20 07:44:39;;;;;;;8.55;5.47;;;;;;;;;;4985519;28;20199;-83
2022/03/20 07:47:08;;;;;;;7.07;4.25;;;;;;;;;;4985695;28;20192;-85
2022/03/20 07:49:38;;;;;;;5.35;4.35;;;;;;;;;;4982853;28;20700;-83
2022/03/20 07:52:05;;;;;;;8.68;4.72;;;;;;;;;;4984962;28;20204;-85
2022/03/20 07:54:32;;;;;;;8.05;5.32;;;;;;;;;;4985520;28;20238;-83
2022/03/20 07:56:58;;;;;;;8.63;5.20;;;;;;;;;;4984235;28;20552;-84
2022/03/20 07:59:24;;;;;;;7.40;5.70;;;;;;;;;;4971770;28;20588;-81
2022/03/20 08:01:50;;;;;;;7.78;5.35;;;;;;;;;;5000945;28;20510;-82
2022/03/20 08:04:16;;;;;;;9.23;5.60;;;;;;;;;;4986705;28;20183;-84
2022/03/20 08:06:42;;;;;;;9.13;6.50;;;;;;;;;;4973047;28;20452;-83
2022/03/20 08:09:08;;;;;;;10.05;7.30;;;;;;;;;;4996892;28;20184;-84
2022/03/20 08:11:34;;;;;;;11.35;6.82;;;;;;;;;;4984184;28;20223;-85
2022/03/20 08:14:07;;;;;;;9.43;7.15;;;;;;;;;;4985132;28;20192;-83
2022/03/20 08:16:34;;;;;;;10.23;6.95;;;;;;;;;;4983744;28;20188;-84
2022/03/20 08:19:01;;;;;;;8.02;5.22;;;;;;;;;;4979462;28;20184;-87
2022/03/20 08:21:27;;;;;;;7.03;6.32;;;;;;;;;;4983731;28;20186;-84
2022/03/20 08:23:53;;;;;;;9.23;6.25;;;;;;;;;;4981579;28;20255;-85
2022/03/20 08:26:19;;;;;;;8.30;6.05;;;;;;;;;;4985594;28;20208;-83
2022/03/20 08:28:45;;;;;;;12.23;7.03;;;;;;;;;;4983757;28;20831;-84
2022/03/20 08:31:12;;;;;;;12.52;7.07;;;;;;;;;;4984789;28;20203;-84
2022/03/20 08:33:40;;;;;;;14.32;7.60;;;;;;;;;;4984872;28;20215;-82
2022/03/20 08:36:06;;;;;;;12.02;7.10;;;;;;;;;;4983097;28;20226;-82
2022/03/20 08:38:32;;;;;;;14.70;7.00;;;;;;;;;;4982839;28;20180;-84
2022/03/20 08:40:59;;;;;;;7.13;5.55;;;;;;;;;;4982105;28;20219;-81
2022/03/20 08:43:25;;;;;;;9.50;7.32;;;;;;;;;;4984488;28;20251;-82
2022/03/20 08:45:51;;;;;;;9.87;7.67;;;;;;;;;;4985013;28;20222;-83
2022/03/20 08:48:18;;;;;;;8.93;7.00;;;;;;;;;;4984941;28;20447;-83
2022/03/20 08:50:48;;;;;;;10.13;7.10;;;;;;;;;;4996948;28;20195;-84
2022/03/20 08:53:15;;;;;;;10.10;7.15;;;;;;;;;;4996037;28;20255;-84
2022/03/20 08:55:41;;;;;;;10.70;8.60;;;;;;;;;;5001524;28;20187;-84
2022/03/20 08:58:07;;;;;;;10.30;7.23;;;;;;;;;;4984225;28;20176;-86
2022/03/20 09:00:33;;;;;;;9.02;7.00;;;;;;;;;;5000059;28;20433;-84
2022/03/20 09:03:00;;;;;;;10.07;7.40;;;;;;;;;;4985458;28;20204;-87
2022/03/20 09:05:26;;;;;;;10.60;6.97;;;;;;;;;;4985004;28;20252;-85
2022/03/20 09:07:55;;;;;;;11.15;7.07;;;;;;;;;;4985458;28;20485;-86
2022/03/20 09:10:21;;;;;;;10.30;8.00;;;;;;;;;;4984185;28;20182;-85
2022/03/20 09:12:47;;;;;;;13.05;8.23;;;;;;;;;;4997354;28;20185;-84
2022/03/20 09:15:14;;;;;;;14.10;7.70;;;;;;;;;;4976204;28;20188;-88
2022/03/20 09:20:26;;;;;;;7.45;6.55;;;;;;;;;;4974146;28;20203;-87
2022/03/20 09:22:52;;;;;;;10.43;6.70;;;;;;;;;;4974314;28;20177;-86
2022/03/20 09:25:18;;;;;;;12.85;7.80;;;;;;;;;;4982493;28;20195;-85
2022/03/20 09:27:48;;;;;;;10.18;7.60;;;;;;;;;;4984869;28;20176;-83
2022/03/20 09:30:14;;;;;;;14.23;8.75;;;;;;;;;;4983868;28;20179;-89
2022/03/20 09:32:40;;;;;;;11.15;8.60;;;;;;;;;;4999385;28;20212;-86
2022/03/20 09:35:06;;;;;;;11.70;8.70;;;;;;;;;;4983995;28;20267;-87
2022/03/20 09:37:33;;;;;;;13.13;8.95;;;;;;;;;;4985978;28;20180;-85
2022/03/20 09:39:59;;;;;;;13.05;8.73;;;;;;;;;;4984670;28;20187;-86
2022/03/20 09:42:25;;;;;;;10.05;8.30;;;;;;;;;;4980153;28;20191;-86
2022/03/20 09:44:53;;;;;;;10.17;7.50;;;;;;;;;;4973330;28;20223;-88
2022/03/20 09:47:19;;;;;;;11.65;7.97;;;;;;;;;;4983897;28;20443;-85
2022/03/20 09:49:46;;;;;;;11.70;9.07;;;;;;;;;;4999663;28;20179;-84
2022/03/20 09:52:12;;;;;;;13.80;8.23;;;;;;;;;;4983351;28;20199;-86
2022/03/20 09:54:38;;;;;;;11.93;7.90;;;;;;;;;;4978722;28;20183;-85
2022/03/20 09:57:05;;;;;;;11.00;8.02;;;;;;;;;;4981332;28;20187;-85
2022/03/20 09:59:32;;;;;;;14.35;9.80;;;;;;;;;;4982965;28;20215;-84
2022/03/20 10:02:11;;;;;;;13.30;8.73;;;;;;;;;;4997974;28;20180;-81
2022/03/20 10:04:56;;;;;;;12.60;7.43;;;;;;;;;;4984042;28;20190;-84
2022/03/20 10:07:25;;;;;;;10.85;7.32;;;;;;;;;;4985584;28;20194;-87
2022/03/20 10:10:07;;;;;;;13.55;7.43;;;;;;;;;;4984810;28;20184;-83
2022/03/20 10:12:34;;;;;;;10.23;7.55;;;;;;;;;;4981712;28;20232;-83
2022/03/20 10:15:05;;;;;;;11.00;8.45;;;;;;;;;;4978897;28;20191;-84
2022/03/20 10:17:31;;;;;;;11.15;8.18;;;;;;;;;;4982213;28;20208;-86
2022/03/20 10:20:12;;;;;;;14.82;9.50;;;;;;;;;;4984210;28;20176;-83
2022/03/20 10:22:38;;;;;;;14.15;9.40;;;;;;;;;;4984099;28;20180;-87
2022/03/20 10:25:04;;;;;;;10.80;8.30;;;;;;;;;;4984227;28;20191;-90
2022/03/20 10:27:30;;;;;;;10.40;8.55;;;;;;;;;;4984276;28;20461;-84
2022/03/20 10:30:01;;;;;;;11.10;9.23;;;;;;;;;;4983639;28;20192;-83
2022/03/20 10:32:27;;;;;;;11.18;9.30;;;;;;;;;;4984062;28;20924;-86
2022/03/20 10:34:53;;;;;;;9.07;7.85;;;;;;;;;;4984423;28;20180;-85
2022/03/20 10:37:21;;;;;;;10.60;8.35;;;;;;;;;;4983248;28;20190;-82
2022/03/20 10:39:47;;;;;;;10.10;7.40;;;;;;;;;;4979203;28;20188;-87
2022/03/20 10:42:14;;;;;;;9.10;6.97;;;;;;;;;;4990927;28;20263;-84
2022/03/20 10:44:40;;;;;;;11.25;8.32;;;;;;;;;;4975773;28;20250;-86
2022/03/20 10:47:16;;;;;;;10.70;7.72;;;;;;;;;;4987079;28;20191;-84
2022/03/20 10:49:46;;;;;;;9.15;7.28;;;;;;;;;;4988765;28;20197;-84
2022/03/20 10:52:18;;;;;;;8.57;5.72;;;;;;;;;;4987108;28;20274;-87
2022/03/20 10:54:50;;;;;;;7.90;5.30;;;;;;;;;;4987890;28;20266;-84
2022/03/20 10:57:16;;;;;;;8.68;6.75;;;;;;;;;;4987460;28;20217;-83
2022/03/20 10:59:43;;;;;;;9.68;6.60;;;;;;;;;;4985997;28;20184;-82
2022/03/20 11:02:22;;;;;;;10.20;6.50;;;;;;;;;;4981395;28;20184;-85
2022/03/20 11:04:49;;;;;;;10.38;7.53;;;;;;;;;;4983731;28;20176;-83
2022/03/20 11:07:17;;;;;;;7.55;6.43;;;;;;;;;;4987421;28;20176;-85
2022/03/20 11:09:46;;;;;;;10.35;6.72;;;;;;;;;;4982714;28;20184;-84
2022/03/20 11:12:15;;;;;;;7.97;6.30;;;;;;;;;;4978520;28;20685;-84
2022/03/20 11:14:42;;;;;;;8.45;6.80;;;;;;;;;;4985345;28;20179;-83
2022/03/20 11:17:10;;;;;;;9.32;7.95;;;;;;;;;;5002001;28;20180;-86
2022/03/20 11:19:41;;;;;;;8.85;7.13;;;;;;;;;;4987790;28;20180;-86
2022/03/20 11:22:12;;;;;;;12.10;7.35;;;;;;;;;;4988034;28;20187;-85
2022/03/20 11:24:41;;;;;;;6.03;5.28;;;;;;;;;;4985112;28;20211;-87
2022/03/20 11:27:08;;;;;;;9.35;7.25;;;;;;;;;;5002308;28;20283;-84
2022/03/20 11:29:47;;;;;;;12.60;7.38;;;;;;;;;;4986649;28;20199;-82
2022/03/20 11:32:14;;;;;;;7.97;6.57;;;;;;;;;;4988028;28;20271;-87
2022/03/20 11:34:40;;;;;;;8.30;7.38;;;;;;;;;;4984246;28;20180;-86
2022/03/20 11:37:06;;;;;;;10.45;7.32;;;;;;;;;;4998962;28;20192;-87
2022/03/20 11:39:32;;;;;;;11.52;6.85;;;;;;;;;;4982602;28;20212;-84
2022/03/20 11:42:17;;;;;;;10.40;7.18;;;;;;;;;;4987426;28;20256;-83
2022/03/20 11:45:02;;;;;;;8.77;6.45;;;;;;;;;;4984864;28;20191;-83
2022/03/20 11:47:31;;;;;;;7.00;6.30;;;;;;;;;;4985902;28;20191;-88
2022/03/20 11:50:06;;;;;;;8.60;6.78;;;;;;;;;;4987407;28;20182;-84
2022/03/20 11:52:45;;;;;;;6.90;6.25;;;;;;;;;;4985069;28;20729;-85
2022/03/20 11:55:24;;;;;;;8.25;7.22;;;;;;;;;;4974666;28;20180;-87
2022/03/20 11:57:50;;;;;;;12.85;7.72;;;;;;;;;;4983590;28;20193;-83
2022/03/20 12:00:19;;;;;;;10.88;7.28;;;;;;;;;;5001086;28;20229;-84
2022/03/20 12:02:54;;;;;;;10.60;7.33;;;;;;;;;;4985364;28;20259;-86
2022/03/20 12:05:50;;;;;;;8.73;7.70;;;;;;;;;;4985457;28;20461;-86
2022/03/20 12:08:21;;;;;;;10.20;7.70;;;;;;;;;;4986314;28;20794;-85
2022/03/20 12:10:53;;;;;;;9.60;7.07;;;;;;;;;;4986872;28;20487;-82
2022/03/20 12:13:34;;;;;;;9.60;6.43;;;;;;;;;;4984136;28;20479;-88
2022/03/20 12:16:00;;;;;;;8.60;6.33;;;;;;;;;;4999646;28;20420;-85
2022/03/20 12:18:26;;;;;;;7.57;6.80;;;;;;;;;;4986276;28;20416;-90
2022/03/20 12:20:59;;;;;;;7.40;6.70;;;;;;;;;;4984722;28;20416;-84
2022/03/20 12:23:36;;;;;;;7.30;6.30;;;;;;;;;;4984423;28;20538;-87
2022/03/20 12:26:20;;;;;;;7.10;5.90;;;;;;;;;;4986633;28;20426;-84
2022/03/20 12:28:46;;;;;;;5.80;5.20;;;;;;;;;;4982737;28;20995;-87
2022/03/20 12:31:23;;;;;;;7.57;6.80;;;;;;;;;;4984439;28;20836;-84
2022/03/20 12:34:09;;;;;;;9.30;6.07;;;;;;;;;;4981421;28;20440;-83
2022/03/20 12:36:35;;;;;;;7.93;6.50;;;;;;;;;;4993851;28;20510;-82
2022/03/20 12:39:01;;;;;;;7.23;5.93;;;;;;;;;;4983314;28;20425;-86
2022/03/20 12:41:28;;;;;;;7.30;6.50;;;;;;;;;;4985680;28;20442;-84
2022/03/20 12:43:58;;;;;;;6.93;6.30;;;;;;;;;;4983481;28;20435;-83
2022/03/20 12:46:24;;;;;;;7.63;6.87;;;;;;;;;;4984452;28;20410;-91
2022/03/20 12:48:51;;;;;;;6.43;5.83;;;;;;;;;;4980848;28;20436;-84
2022/03/20 12:51:21;;;;;;;7.43;6.70;;;;;;;;;;4989197;28;20548;-89
2022/03/20 12:53:48;;;;;;;7.03;6.43;;;;;;;;;;4974580;28;20438;-86
2022/03/20 12:56:29;;;;;;;7.03;6.37;;;;;;;;;;4985068;28;20445;-86
2022/03/20 12:58:55;;;;;;;7.97;7.17;;;;;;;;;;4982010;28;20433;-84
2022/03/20 13:01:21;;;;;;;7.30;6.60;;;;;;;;;;4985294;28;20423;-83
2022/03/20 13:03:48;;;;;;;7.47;6.77;;;;;;;;;;4984471;28;20447;-86
2022/03/20 13:06:15;;;;;;;7.33;6.50;;;;;;;;;;4984693;28;20506;-83
2022/03/20 13:08:44;;;;;;;7.77;6.97;;;;;;;;;;4985512;28;20427;-83
2022/03/20 13:14:03;;;;;;;9.17;8.00;;;;;;;;;;4983427;28;20406;-86
2022/03/20 13:16:29;;;;;;;9.07;7.63;;;;;;;;;;4983451;28;20430;-85
2022/03/20 13:18:56;;;;;;;8.10;7.40;;;;;;;;;;4982861;28;20811;-80
2022/03/20 13:21:22;;;;;;;8.70;7.97;;;;;;;;;;4984808;28;20463;-83
2022/03/20 13:23:48;;;;;;;11.53;7.90;;;;;;;;;;4983112;28;20446;-85
2022/03/20 13:26:17;;;;;;;8.40;7.80;;;;;;;;;;4983778;28;20440;-85
2022/03/20 13:28:45;;;;;;;8.57;7.67;;;;;;;;;;4980949;28;20439;-82
2022/03/20 13:31:19;;;;;;;9.97;8.60;;;;;;;;;;4983588;28;21129;-84
2022/03/20 13:33:53;;;;;;;9.63;8.73;;;;;;;;;;4984886;28;20528;-85
2022/03/20 13:36:23;;;;;;;9.30;8.03;;;;;;;;;;4979760;28;20450;-83
2022/03/20 13:38:50;;;;;;;8.87;8.07;;;;;;;;;;4974018;28;20448;-82
2022/03/20 13:41:16;;;;;;;7.73;6.93;;;;;;;;;;4982908;28;20438;-86
2022/03/20 13:43:43;;;;;;;7.57;6.80;;;;;;;;;;4984567;28;20472;-86
2022/03/20 13:46:12;;;;;;;8.40;6.80;;;;;;;;;;4996077;28;20443;-85
2022/03/20 13:48:38;;;;;;;8.20;7.50;;;;;;;;;;4979224;28;20478;-86
2022/03/20 13:51:05;;;;;;;7.30;6.70;;;;;;;;;;4983592;28;20528;-83
2022/03/20 13:53:31;;;;;;;7.37;6.70;;;;;;;;;;4982764;28;20441;-85
2022/03/20 13:55:57;;;;;;;9.73;8.10;;;;;;;;;;4997662;28;20413;-87
2022/03/20 13:58:23;;;;;;;7.50;6.80;;;;;;;;;;4984552;28;20458;-87
2022/03/20 14:00:59;;;;;;;6.90;6.20;;;;;;;;;;4998968;28;20457;-86
2022/03/20 14:03:30;;;;;;;8.57;7.77;;;;;;;;;;4984262;28;20515;-85
2022/03/20 14:05:56;;;;;;;7.17;6.43;;;;;;;;;;4979415;28;20468;-83
2022/03/20 14:08:22;;;;;;;7.20;6.33;;;;;;;;;;4983468;28;20925;-83
2022/03/20 14:10:53;;;;;;;6.90;6.20;;;;;;;;;;4998592;28;20491;-83
2022/03/20 14:13:23;;;;;;;7.10;6.40;;;;;;;;;;4977985;28;20420;-84
2022/03/20 14:16:08;;;;;;;7.43;6.60;;;;;;;;;;4982615;28;20446;-82
2022/03/20 14:18:54;;;;;;;6.43;5.90;;;;;;;;;;4983673;28;20435;-82
2022/03/20 14:21:21;;;;;;;6.53;5.30;;;;;;;;;;4983852;28;20474;-82
2022/03/20 14:23:53;;;;;;;8.20;6.03;;;;;;;;;;4983109;28;20516;-81
2022/03/20 14:26:20;;;;;;;5.97;5.47;;;;;;;;;;4998923;28;20461;-81
2022/03/20 14:28:46;;;;;;;5.13;4.43;;;;;;;;;;4970194;28;20493;-81
2022/03/20 14:39:49;;;;;;;4.80;4.30;;;;;;;;;;4983634;28;20444;-85
2022/03/20 14:42:34;;;;;;;5.87;5.37;;;;;;;;;;4995304;28;20447;-86
2022/03/20 14:45:03;;;;;;;5.20;4.80;;;;;;;;;;4972695;28;20458;-81
2022/03/20 14:47:29;;;;;;;5.77;5.17;;;;;;;;;;4981091;28;20443;-83
2022/03/20 14:49:56;;;;;;;6.70;5.20;;;;;;;;;;4997319;28;20460;-84
2022/03/20 14:52:22;;;;;;;6.43;5.82;;;;;;;;;;4984019;28;20203;-85
2022/03/20 14:54:50;;;;;;;7.82;5.40;;;;;;;;;;4983595;28;20191;-84
2022/03/20 14:57:16;;;;;;;7.22;5.60;;;;;;;;;;4983861;28;20190;-84
2022/03/20 14:59:44;;;;;;;6.87;5.13;;;;;;;;;;4983727;28;20184;-84
2022/03/20 15:02:10;;;;;;;7.78;5.25;;;;;;;;;;4997972;28;20832;-83
2022/03/20 15:04:38;;;;;;;7.32;4.95;;;;;;;;;;4983601;28;20184;-85
2022/03/20 15:07:05;;;;;;;6.45;5.22;;;;;;;;;;4997179;28;20195;-86
2022/03/20 15:12:16;;;;;;;7.95;6.75;;;;;;;;;;4983834;28;20263;-86
2022/03/20 15:14:42;;;;;;;7.22;5.30;;;;;;;;;;4983060;28;20185;-85
2022/03/20 15:17:08;;;;;;;6.43;4.83;;;;;;;;;;4997451;28;20204;-85
2022/03/20 15:19:36;;;;;;;6.18;5.57;;;;;;;;;;4984163;28;20438;-86
2022/03/20 15:22:02;;;;;;;6.38;5.70;;;;;;;;;;4983345;28;20220;-89
2022/03/20 15:24:28;;;;;;;9.57;6.03;;;;;;;;;;4995050;28;20188;-86
2022/03/20 15:26:55;;;;;;;8.13;6.40;;;;;;;;;;4976659;28;20214;-86
2022/03/20 15:29:21;;;;;;;7.30;5.10;;;;;;;;;;4985215;28;20537;-85
2022/03/20 15:31:49;;;;;;;7.15;6.03;;;;;;;;;;5001766;28;20204;-83